sensor_id;sensor_type;location;lat;lon;timestamp;P1;durP1;ratioP1;P2;durP2;ratioP2
77575;SDS011;66713;41.920;25.912;2023-02-01T20:10:05;68.70;;;47.10;;
77575;SDS011;66713;41.920;25.912;2023-02-01T20:12:31;78.22;;;53.20;;
77575;SDS011;66713;41.920;25.912;2023-02-01T20:14:57;78.93;;;51.08;;
77575;SDS011;66713;41.920;25.912;2023-02-01T20:17:28;51.63;;;37.13;;
77575;SDS011;66713;41.920;25.912;2023-02-01T20:20:00;67.65;;;41.47;;
77575;SDS011;66713;41.920;25.912;2023-02-01T20:22:26;79.53;;;49.17;;
77575;SDS011;66713;41.920;25.912;2023-02-01T20:24:53;93.50;;;56.90;;
77575;SDS011;66713;41.920;25.912;2023-02-01T20:27:19;112.35;;;65.03;;
77575;SDS011;66713;41.920;25.912;2023-02-01T20:29:45;120.82;;;65.72;;
77575;SDS011;66713;41.920;25.912;2023-02-01T20:32:11;82.70;;;45.88;;
77575;SDS011;66713;41.920;25.912;2023-02-01T20:34:37;69.85;;;41.50;;
77575;SDS011;66713;41.920;25.912;2023-02-01T20:37:02;45.05;;;27.42;;
77575;SDS011;66713;41.920;25.912;2023-02-01T20:39:28;57.33;;;33.67;;
77575;SDS011;66713;41.920;25.912;2023-02-01T20:41:55;109.78;;;57.95;;
77575;SDS011;66713;41.920;25.912;2023-02-01T20:44:24;99.53;;;52.50;;
77575;SDS011;66713;41.920;25.912;2023-02-01T20:46:52;74.35;;;41.00;;
77575;SDS011;66713;41.920;25.912;2023-02-01T20:49:24;75.63;;;38.58;;
77575;SDS011;66713;41.920;25.912;2023-02-01T20:51:52;57.83;;;31.75;;
77575;SDS011;66713;41.920;25.912;2023-02-01T20:54:18;60.53;;;32.95;;
77575;SDS011;66713;41.920;25.912;2023-02-01T20:56:43;50.80;;;30.65;;
77575;SDS011;66713;41.920;25.912;2023-02-01T20:59:09;63.95;;;32.45;;
77575;SDS011;66713;41.920;25.912;2023-02-01T21:01:36;74.78;;;39.25;;
77575;SDS011;66713;41.920;25.912;2023-02-01T21:04:20;90.07;;;47.50;;
77575;SDS011;66713;41.920;25.912;2023-02-01T21:06:47;88.20;;;48.95;;
77575;SDS011;66713;41.920;25.912;2023-02-01T21:09:14;76.22;;;45.17;;
77575;SDS011;66713;41.920;25.912;2023-02-01T21:11:39;51.95;;;33.22;;
77575;SDS011;66713;41.920;25.912;2023-02-01T21:14:05;35.45;;;21.30;;
77575;SDS011;66713;41.920;25.912;2023-02-01T21:16:30;43.00;;;27.52;;
77575;SDS011;66713;41.920;25.912;2023-02-01T21:18:57;35.37;;;21.90;;
77575;SDS011;66713;41.920;25.912;2023-02-01T21:21:22;36.38;;;21.48;;
77575;SDS011;66713;41.920;25.912;2023-02-01T21:23:48;31.17;;;20.02;;
77575;SDS011;66713;41.920;25.912;2023-02-01T21:26:14;30.17;;;16.80;;
77575;SDS011;66713;41.920;25.912;2023-02-01T21:28:45;19.67;;;12.88;;
77575;SDS011;66713;41.920;25.912;2023-02-01T21:31:11;29.10;;;21.08;;
77575;SDS011;66713;41.920;25.912;2023-02-01T21:33:39;31.83;;;20.85;;
77575;SDS011;66713;41.920;25.912;2023-02-01T21:36:04;40.50;;;24.02;;
77575;SDS011;66713;41.920;25.912;2023-02-01T21:38:31;29.80;;;20.40;;
77575;SDS011;66713;41.920;25.912;2023-02-01T21:40:57;21.85;;;15.52;;
77575;SDS011;66713;41.920;25.912;2023-02-01T21:43:41;20.42;;;12.98;;
77575;SDS011;66713;41.920;25.912;2023-02-01T21:46:06;15.07;;;10.45;;
77575;SDS011;66713;41.920;25.912;2023-02-01T21:48:32;11.25;;;7.18;;
77575;SDS011;66713;41.920;25.912;2023-02-01T21:50:58;10.18;;;7.80;;
77575;SDS011;66713;41.920;25.912;2023-02-01T21:53:23;9.65;;;6.13;;
